Time;durP1;ratioP1;P1;durP2;ratioP2;P2;SDS_P1;SDS_P2;PMS_P1;PMS_P2;Temp;Humidity;BMP_temperature;BMP_pressure;BME280_temperature;BME280_humidity;BME280_pressure;Samples;Min_cycle;Max_cycle;Signal;HPM_P1;HPM_P2
2021/04/21 00:01:46;;;;;;;15.80;8.88;;;12.10;69.40;;;;;;5051492;28;20104;-76
2021/04/21 00:04:16;;;;;;;13.68;8.77;;;12.10;66.30;;;;;;5050426;28;20028;-76
2021/04/21 00:06:43;;;;;;;15.93;9.05;;;12.00;64.90;;;;;;5050427;28;20457;-77
2021/04/21 00:09:15;;;;;;;13.73;8.35;;;12.00;66.10;;;;;;5051179;28;20020;-76
2021/04/21 00:11:41;;;;;;;13.60;8.93;;;11.90;64.80;;;;;;5050110;28;20086;-77
2021/04/21 00:14:08;;;;;;;15.07;9.45;;;11.90;64.60;;;;;;5050110;28;20049;-77
2021/04/21 00:16:36;;;;;;;15.02;9.52;;;11.80;66.10;;;;;;5054000;28;20044;-77
2021/04/21 00:19:04;;;;;;;16.42;9.38;;;11.70;65.00;;;;;;5055024;28;20381;-77
2021/04/21 00:21:32;;;;;;;14.40;9.15;;;11.70;65.40;;;;;;5053827;28;20025;-76
2021/04/21 00:24:00;;;;;;;14.02;8.52;;;11.50;65.60;;;;;;5054509;28;20039;-77
2021/04/21 00:26:26;;;;;;;15.98;9.27;;;11.50;66.00;;;;;;5053431;28;20553;-77
2021/04/21 00:28:54;;;;;;;21.23;10.93;;;11.40;66.80;;;;;;5054350;28;20112;-76
2021/04/21 00:31:22;;;;;;;17.85;8.68;;;11.30;67.10;;;;;;5053447;28;20032;-76
2021/04/21 00:33:54;;;;;;;18.27;10.27;;;11.30;67.60;;;;;;5053349;28;20198;-76
2021/04/21 00:36:22;;;;;;;18.65;10.52;;;11.20;67.10;;;;;;5053596;28;20453;-75
2021/04/21 00:38:50;;;;;;;15.40;10.98;;;11.10;67.40;;;;;;5054724;28;20017;-76
2021/04/21 00:41:53;;;;;;;15.10;9.95;;;11.10;67.20;;;;;;5053373;28;20373;-75
2021/04/21 00:44:27;;;;;;;15.88;9.93;;;11.00;67.30;;;;;;5054232;28;20021;-75
2021/04/21 00:47:04;;;;;;;17.38;10.18;;;10.90;67.60;;;;;;5054041;28;20078;-74
2021/04/21 00:49:46;;;;;;;17.20;10.45;;;10.80;67.80;;;;;;5054882;28;20021;-75
2021/04/21 00:52:22;;;;;;;20.77;12.05;;;10.70;68.10;;;;;;5052901;28;20441;-74
2021/04/21 00:55:06;;;;;;;15.15;11.07;;;10.70;68.20;;;;;;5053722;28;20100;-75
2021/04/21 00:58:29;;;;;;;17.52;10.43;;;10.60;68.70;;;;;;5053600;28;20025;-75
2021/04/21 01:00:56;;;;;;;19.20;12.23;;;10.60;69.00;;;;;;5029060;28;20033;-75
2021/04/21 01:03:24;;;;;;;17.58;11.35;;;10.40;69.20;;;;;;5052814;28;20420;-75
2021/04/21 01:06:01;;;;;;;16.88;10.60;;;10.40;69.50;;;;;;5054010;28;20024;-74
2021/04/21 01:08:37;;;;;;;18.83;11.65;;;10.30;69.90;;;;;;5054125;28;20021;-75
2021/04/21 01:11:08;;;;;;;18.25;12.50;;;10.30;70.50;;;;;;5053765;28;20068;-76
2021/04/21 01:13:50;;;;;;;21.48;13.95;;;10.20;70.80;;;;;;5053756;28;20021;-76
2021/04/21 01:16:26;;;;;;;23.45;14.32;;;10.20;71.70;;;;;;5054123;28;20025;-77
2021/04/21 01:18:56;;;;;;;19.33;13.20;;;10.10;71.50;;;;;;5053442;28;20368;-76
2021/04/21 01:21:33;;;;;;;25.08;14.52;;;10.20;71.80;;;;;;5052575;28;20025;-76
2021/04/21 01:24:17;;;;;;;26.75;14.90;;;10.10;73.10;;;;;;5052112;28;20449;-75
2021/04/21 01:27:01;;;;;;;21.48;13.95;;;10.00;73.40;;;;;;5051194;28;20406;-76
2021/04/21 01:29:44;;;;;;;23.70;13.57;;;10.00;73.00;;;;;;5053768;28;20043;-77
2021/04/21 01:32:17;;;;;;;19.30;13.27;;;10.00;73.30;;;;;;5053057;28;20376;-77
2021/04/21 01:34:45;;;;;;;25.08;14.77;;;9.90;73.80;;;;;;5053648;28;20017;-77
2021/04/21 01:37:16;;;;;;;22.75;14.68;;;10.00;76.20;;;;;;5052176;28;20025;-76
2021/04/21 01:39:53;;;;;;;20.40;12.45;;;9.90;75.10;;;;;;5053650;28;20028;-75
2021/04/21 01:42:23;;;;;;;20.90;13.73;;;9.90;76.40;;;;;;5052355;28;20020;-76
2021/04/21 01:44:52;;;;;;;14.80;8.25;;;9.80;78.30;;;;;;5053379;28;20052;-76
2021/04/21 01:47:22;;;;;;;17.70;13.32;;;9.90;79.60;;;;;;5053617;28;20017;-76
2021/04/21 01:49:52;;;;;;;20.70;11.85;;;9.80;80.30;;;;;;5053184;28;20047;-76
2021/04/21 01:52:21;;;;;;;;;;;9.80;81.00;;;;;;5054643;28;20021;-75
2021/04/21 01:54:51;;;;;;;23.02;13.43;;;9.80;81.60;;;;;;5055680;28;19908;-75
2021/04/21 01:57:30;;;;;;;22.20;14.23;;;9.70;80.40;;;;;;5055646;28;20025;-75
2021/04/21 02:00:03;;;;;;;25.23;15.73;;;9.70;78.50;;;;;;5055066;28;20025;-75
2021/04/21 02:02:36;;;;;;;21.63;15.10;;;9.70;77.30;;;;;;5051774;28;20066;-75
2021/04/21 02:05:39;;;;;;;22.95;14.93;;;9.70;76.70;;;;;;5051694;28;20021;-75
2021/04/21 02:08:31;;;;;;;27.17;16.23;;;9.70;76.30;;;;;;5050015;28;20036;-76
2021/04/21 02:11:25;;;;;;;22.02;14.55;;;9.70;76.50;;;;;;5053054;28;20032;-75
2021/04/21 02:14:21;;;;;;;25.45;15.13;;;9.60;77.10;;;;;;5052257;28;20135;-77
2021/04/21 02:17:15;;;;;;;21.85;15.60;;;9.60;76.60;;;;;;5051887;28;20068;-77
2021/04/21 02:20:18;;;;;;;23.25;15.27;;;9.50;76.50;;;;;;5053136;28;20114;-75
2021/04/21 02:22:50;;;;;;;24.25;13.90;;;9.50;76.70;;;;;;5052853;28;20055;-76
2021/04/21 02:25:31;;;;;;;24.50;15.10;;;9.50;76.90;;;;;;5052771;28;20031;-76
2021/04/21 02:28:11;;;;;;;27.75;18.08;;;9.40;76.90;;;;;;5052850;28;20020;-76
2021/04/21 02:30:43;;;;;;;;;;;9.50;77.40;;;;;;5051923;28;20017;-77
2021/04/21 02:33:30;;;;;;;23.05;15.98;;;9.40;77.50;;;;;;5052234;28;20356;-77
2021/04/21 02:36:02;;;;;;;24.30;16.38;;;9.40;77.50;;;;;;5051226;28;20021;-76
2021/04/21 02:38:48;;;;;;;23.27;15.52;;;9.40;77.90;;;;;;5052315;28;20560;-76
2021/04/21 02:41:31;;;;;;;24.40;16.33;;;9.40;77.70;;;;;;5052318;28;20033;-76
2021/04/21 02:44:19;;;;;;;25.33;17.70;;;9.40;78.10;;;;;;5051978;28;20382;-76
2021/04/21 02:46:52;;;;;;;26.23;17.48;;;9.50;77.90;;;;;;5051145;28;20021;-76
2021/04/21 02:49:46;;;;;;;25.95;17.50;;;9.50;78.30;;;;;;5050880;28;20453;-77
2021/04/21 02:52:41;;;;;;;26.67;17.80;;;9.60;78.00;;;;;;5051772;28;20025;-76
2021/04/21 02:55:18;;;;;;;31.45;18.83;;;9.60;78.10;;;;;;5051840;28;20546;-76
2021/04/21 02:58:00;;;;;;;27.70;18.05;;;9.60;77.80;;;;;;5050692;28;20024;-77
2021/04/21 03:00:32;;;;;;;23.40;14.70;;;9.60;77.60;;;;;;5052185;28;20025;-77
2021/04/21 03:03:09;;;;;;;32.00;18.67;;;9.70;77.80;;;;;;5050734;28;20016;-77
2021/04/21 03:05:36;;;;;;;26.83;16.42;;;9.70;77.60;;;;;;5052140;28;20075;-77
2021/04/21 03:08:35;;;;;;;21.90;15.63;;;9.80;77.40;;;;;;5052261;28;20079;-77
2021/04/21 03:11:20;;;;;;;27.07;19.17;;;9.80;77.50;;;;;;5051699;28;20025;-77
2021/04/21 03:13:58;;;;;;;25.27;17.38;;;9.70;77.70;;;;;;5050501;28;20501;-76
2021/04/21 03:16:27;;;;;;;30.25;18.42;;;9.70;77.50;;;;;;5052150;28;20017;-76
2021/04/21 03:18:56;;;;;;;24.90;15.88;;;9.70;77.80;;;;;;5050857;28;20025;-74
2021/04/21 03:21:27;;;;;;;28.30;21.13;;;9.70;78.10;;;;;;5050762;28;20476;-74
2021/04/21 03:24:16;;;;;;;26.35;18.00;;;9.80;78.00;;;;;;5051695;28;20078;-75
2021/04/21 03:26:46;;;;;;;34.55;20.70;;;9.80;77.80;;;;;;5050554;28;20032;-75
2021/04/21 03:29:17;;;;;;;31.70;20.25;;;9.80;77.60;;;;;;5051590;28;20017;-75
2021/04/21 03:31:46;;;;;;;26.30;18.80;;;9.80;77.30;;;;;;5051665;28;20029;-75
2021/04/21 03:34:14;;;;;;;28.17;19.23;;;9.80;77.20;;;;;;5050525;28;20021;-75
2021/04/21 03:36:42;;;;;;;36.17;17.35;;;9.80;77.90;;;;;;5050385;28;20035;-75
2021/04/21 03:39:08;;;;;;;27.40;18.13;;;9.80;77.20;;;;;;5051675;28;20021;-74
2021/04/21 03:41:36;;;;;;;29.58;18.75;;;9.80;77.30;;;;;;5051963;28;20025;-74
2021/04/21 03:44:02;;;;;;;25.00;15.90;;;9.90;78.50;;;;;;5050378;28;20108;-76
2021/04/21 03:46:28;;;;;;;22.63;15.73;;;9.80;78.80;;;;;;5050171;28;20346;-77
2021/04/21 03:48:55;;;;;;;22.58;16.60;;;9.90;78.60;;;;;;5051574;28;20023;-76
2021/04/21 03:51:21;;;;;;;25.50;19.00;;;9.90;78.90;;;;;;5054060;28;20029;-77
2021/04/21 03:53:48;;;;;;;24.92;16.45;;;9.90;77.80;;;;;;5054311;28;20500;-75
2021/04/21 03:56:21;;;;;;;29.85;18.27;;;9.90;78.30;;;;;;5053943;28;20099;-76
2021/04/21 03:58:47;;;;;;;23.42;15.55;;;9.80;78.60;;;;;;5054149;28;20039;-76
2021/04/21 04:01:15;;;;;;;36.13;19.00;;;9.80;79.50;;;;;;5055110;28;20021;-76
2021/04/21 04:03:55;;;;;;;30.85;19.58;;;9.80;81.10;;;;;;5055569;28;20013;-76
2021/04/21 04:06:30;;;;;;;20.60;12.80;;;9.80;79.80;;;;;;5055381;28;20015;-76
2021/04/21 04:09:08;;;;;;;29.63;19.60;;;9.70;81.60;;;;;;5055393;28;20025;-76
2021/04/21 04:11:46;;;;;;;27.08;17.90;;;9.70;79.90;;;;;;5054021;28;20119;-76
2021/04/21 04:14:27;;;;;;;28.90;18.80;;;9.70;80.10;;;;;;5053581;28;20095;-76
2021/04/21 04:16:54;;;;;;;27.75;17.92;;;9.60;79.60;;;;;;5051286;28;20032;-76
2021/04/21 04:19:20;;;;;;;25.73;18.13;;;9.70;79.00;;;;;;5053283;28;20025;-75
2021/04/21 04:21:53;;;;;;;28.73;19.13;;;9.60;78.50;;;;;;5053568;28;20067;-76
2021/04/21 04:24:22;;;;;;;28.60;20.05;;;9.60;78.00;;;;;;5053284;28;20369;-76
2021/04/21 04:26:48;;;;;;;29.48;22.05;;;9.60;78.50;;;;;;5053718;28;20040;-77
2021/04/21 04:29:14;;;;;;;25.48;17.60;;;9.60;78.40;;;;;;5053370;28;20357;-75
2021/04/21 04:31:40;;;;;;;28.58;18.42;;;9.50;79.00;;;;;;5054936;28;20029;-75
2021/04/21 04:34:09;;;;;;;36.83;25.08;;;9.50;79.70;;;;;;5053368;28;20509;-75
2021/04/21 04:36:38;;;;;;;36.38;26.40;;;9.40;80.60;;;;;;5053650;28;20111;-75
2021/04/21 04:39:06;;;;;;;32.65;24.77;;;9.40;80.90;;;;;;5054781;28;20086;-76
2021/04/21 04:41:32;;;;;;;35.42;25.75;;;9.30;80.40;;;;;;5054405;28;20151;-75
2021/04/21 04:43:59;;;;;;;32.55;24.70;;;9.30;80.70;;;;;;5053537;28;20104;-74
2021/04/21 04:46:28;;;;;;;33.50;21.65;;;9.20;81.60;;;;;;5053208;28;20461;-74
2021/04/21 04:49:05;;;;;;;28.88;17.58;;;9.20;81.90;;;;;;5053006;28;20028;-75
2021/04/21 04:51:34;;;;;;;29.23;20.45;;;9.10;85.70;;;;;;5052784;28;20017;-75
2021/04/21 04:54:05;;;;;;;35.13;24.52;;;9.10;85.00;;;;;;5052833;28;20108;-75
2021/04/21 04:56:33;;;;;;;29.17;20.80;;;9.00;83.10;;;;;;5059231;28;20009;-74
2021/04/21 04:59:04;;;;;;;36.28;25.20;;;9.00;84.00;;;;;;5073107;28;20021;-75
2021/04/21 05:01:49;;;;;;;34.65;24.70;;;9.00;83.90;;;;;;5074036;28;20021;-75
2021/04/21 05:04:19;;;;;;;40.58;25.30;;;9.00;83.50;;;;;;5072756;28;20065;-75
2021/04/21 05:06:58;;;;;;;34.58;25.70;;;9.10;84.00;;;;;;5074114;28;20048;-74
2021/04/21 05:09:28;;;;;;;26.90;19.48;;;9.00;82.70;;;;;;5073545;28;20024;-75
2021/04/21 05:11:57;;;;;;;32.65;22.83;;;9.00;85.70;;;;;;5073667;28;20500;-75
2021/04/21 05:14:24;;;;;;;39.72;28.33;;;9.00;84.50;;;;;;5072305;28;20048;-74
2021/04/21 05:16:55;;;;;;;38.33;26.13;;;9.00;82.70;;;;;;5072807;28;20017;-75
2021/04/21 05:19:54;;;;;;;39.83;29.88;;;9.10;82.20;;;;;;5073675;28;20016;-75
2021/04/21 05:22:59;;;;;;;38.10;27.02;;;9.10;81.60;;;;;;5073746;28;20064;-75
2021/04/21 05:26:15;;;;;;;28.77;23.23;;;9.20;81.20;;;;;;5071260;28;20032;-75
2021/04/21 05:29:08;;;;;;;35.35;25.55;;;9.20;80.90;;;;;;5073635;28;20096;-76
2021/04/21 05:32:15;;;;;;;41.45;25.23;;;9.30;80.90;;;;;;5073678;28;20085;-76
2021/04/21 05:34:58;;;;;;;35.55;24.52;;;9.30;80.70;;;;;;5072448;28;20032;-74
2021/04/21 05:37:46;;;;;;;28.98;22.65;;;9.40;81.00;;;;;;5072215;28;20036;-74
2021/04/21 05:40:43;;;;;;;36.42;26.15;;;9.40;82.40;;;;;;5072015;28;20454;-75
2021/04/21 05:43:50;;;;;;;35.13;26.13;;;9.50;80.20;;;;;;5073349;28;20025;-75
2021/04/21 05:46:37;;;;;;;34.10;24.52;;;9.50;79.40;;;;;;5073101;28;20024;-74
2021/04/21 05:49:30;;;;;;;36.03;25.55;;;9.60;80.30;;;;;;5072103;28;20012;-75
2021/04/21 05:52:49;;;;;;;33.72;25.67;;;9.70;79.80;;;;;;5073126;28;20058;-76
2021/04/21 05:55:39;;;;;;;29.27;22.23;;;9.90;79.60;;;;;;5071842;28;20055;-75
2021/04/21 05:58:14;;;;;;;36.33;26.98;;;10.10;80.20;;;;;;5053608;28;20028;-74
2021/04/21 06:01:07;;;;;;;33.20;26.10;;;10.20;81.50;;;;;;5051778;28;20155;-74
2021/04/21 06:03:35;;;;;;;33.75;23.80;;;10.30;79.40;;;;;;5053080;28;20055;-75
2021/04/21 06:06:02;;;;;;;20.13;15.40;;;10.30;80.50;;;;;;5051644;28;20013;-75
2021/04/21 06:08:29;;;;;;;31.02;22.35;;;10.40;81.00;;;;;;5052688;28;20104;-75
2021/04/21 06:10:55;;;;;;;29.58;19.92;;;10.50;77.40;;;;;;5052704;28;20070;-75
2021/04/21 06:13:32;;;;;;;23.60;17.65;;;10.60;77.00;;;;;;5051780;28;20424;-76
2021/04/21 06:15:59;;;;;;;23.58;18.30;;;10.70;76.50;;;;;;5055052;28;20044;-76
2021/04/21 06:18:25;;;;;;;28.88;21.52;;;10.70;74.50;;;;;;5057298;28;20509;-76
2021/04/21 06:20:51;;;;;;;26.55;20.90;;;10.90;73.10;;;;;;5071799;28;20103;-76
2021/04/21 06:23:26;;;;;;;25.85;19.95;;;11.00;72.20;;;;;;5062461;28;20025;-73
2021/04/21 06:26:03;;;;;;;30.60;21.52;;;11.00;71.80;;;;;;5053779;28;20028;-74
2021/04/21 06:28:29;;;;;;;24.58;18.05;;;11.10;70.70;;;;;;5051107;28;20154;-73
2021/04/21 06:31:15;;;;;;;25.83;20.30;;;11.20;70.40;;;;;;5052440;28;20028;-73
2021/04/21 06:33:42;;;;;;;29.33;20.08;;;11.30;69.50;;;;;;5052091;28;20037;-78
2021/04/21 06:36:11;;;;;;;26.75;19.88;;;11.40;69.50;;;;;;5034560;28;20036;-74
2021/04/21 06:38:38;;;;;;;26.55;19.15;;;11.50;68.60;;;;;;5052302;28;20016;-74
2021/04/21 06:41:04;;;;;;;26.02;18.67;;;11.50;68.30;;;;;;5050742;28;20032;-75
2021/04/21 06:43:32;;;;;;;30.27;20.17;;;11.60;67.80;;;;;;5050695;28;20091;-74
2021/04/21 06:45:58;;;;;;;25.42;18.25;;;11.60;67.30;;;;;;5050894;28;20025;-74
2021/04/21 06:48:35;;;;;;;25.13;18.02;;;11.80;67.50;;;;;;5050528;28;20024;-74
2021/04/21 06:51:15;;;;;;;25.83;18.10;;;11.90;67.40;;;;;;5052225;28;20023;-74
2021/04/21 06:53:43;;;;;;;22.60;16.97;;;12.00;66.60;;;;;;5050960;28;20361;-74
2021/04/21 06:56:08;;;;;;;26.10;18.63;;;12.10;66.40;;;;;;5050778;28;20021;-74
2021/04/21 06:58:36;;;;;;;23.92;18.85;;;12.20;65.80;;;;;;5051991;28;20357;-75
2021/04/21 07:01:30;;;;;;;25.92;18.90;;;12.30;66.50;;;;;;5052465;28;20024;-74
2021/04/21 07:04:14;;;;;;;25.50;20.17;;;12.50;66.00;;;;;;5050240;28;20533;-75
2021/04/21 07:06:44;;;;;;;24.52;17.05;;;12.60;66.80;;;;;;5052103;28;20017;-70
2021/04/21 07:09:19;;;;;;;18.73;14.25;;;12.70;70.70;;;;;;5050891;28;20356;-83
2021/04/21 07:11:46;;;;;;;25.05;17.55;;;12.80;70.90;;;;;;5050811;28;20021;-74
2021/04/21 07:14:19;;;;;;;23.63;17.30;;;12.90;69.50;;;;;;5051737;28;20041;-72
2021/04/21 07:16:44;;;;;;;25.30;17.88;;;13.30;70.40;;;;;;5051908;28;20033;-73
2021/04/21 07:19:12;;;;;;;25.02;17.55;;;13.70;68.60;;;;;;5052133;28;20021;-73
2021/04/21 07:21:40;;;;;;;21.65;15.05;;;14.00;65.70;;;;;;5051771;28;20025;-73
2021/04/21 07:24:08;;;;;;;22.33;15.07;;;14.20;65.50;;;;;;5052666;28;20123;-73
2021/04/21 07:26:39;;;;;;;24.30;15.25;;;14.40;64.30;;;;;;5055691;28;20484;-72
2021/04/21 07:29:08;;;;;;;20.05;13.23;;;14.60;64.10;;;;;;5055719;28;20017;-73
2021/04/21 07:31:38;;;;;;;23.00;13.48;;;14.80;63.10;;;;;;5054275;28;20033;-72
2021/04/21 07:34:04;;;;;;;17.08;12.88;;;15.00;63.00;;;;;;5054448;28;20021;-71
2021/04/21 07:36:30;;;;;;;16.63;12.75;;;15.20;61.70;;;;;;5055536;28;20032;-67
2021/04/21 07:38:56;;;;;;;16.67;11.52;;;15.20;61.20;;;;;;5055619;28;20017;-68
2021/04/21 07:41:38;;;;;;;16.88;12.15;;;15.40;60.80;;;;;;5054122;28;20061;-68
2021/04/21 07:44:06;;;;;;;18.30;11.90;;;15.60;60.90;;;;;;5054487;28;20017;-67
2021/04/21 07:46:33;;;;;;;16.63;11.30;;;15.70;59.60;;;;;;5054062;28;20024;-67
2021/04/21 07:48:58;;;;;;;14.90;9.35;;;15.70;59.30;;;;;;5055858;28;20021;-68
2021/04/21 07:51:24;;;;;;;17.80;10.15;;;15.80;60.00;;;;;;5055824;28;20028;-67
2021/04/21 07:53:53;;;;;;;13.90;10.25;;;15.90;59.60;;;;;;5055403;28;20024;-68
2021/04/21 07:56:20;;;;;;;17.42;10.27;;;16.00;58.90;;;;;;5053723;28;20024;-68
2021/04/21 07:58:46;;;;;;;18.10;12.32;;;16.20;60.70;;;;;;5055683;28;20052;-68
2021/04/21 08:01:12;;;;;;;14.73;10.23;;;16.20;58.50;;;;;;5052582;28;20013;-68
2021/04/21 08:03:39;;;;;;;13.85;9.68;;;16.30;58.50;;;;;;5073077;28;20474;-68
2021/04/21 08:06:04;;;;;;;18.30;10.45;;;16.30;58.20;;;;;;5074759;28;20451;-68
2021/04/21 08:08:32;;;;;;;15.13;9.55;;;16.30;57.60;;;;;;5074221;28;20017;-68
2021/04/21 08:10:58;;;;;;;14.20;10.15;;;16.50;57.00;;;;;;5074919;28;20023;-67
2021/04/21 08:13:45;;;;;;;13.55;7.40;;;16.60;57.80;;;;;;5073328;28;20054;-67
2021/04/21 08:16:23;;;;;;;16.70;11.02;;;16.70;61.50;;;;;;5074950;28;20115;-67
2021/04/21 08:18:49;;;;;;;19.20;12.13;;;16.50;57.20;;;;;;5074564;28;20485;-67
2021/04/21 08:21:35;;;;;;;13.40;9.05;;;16.40;55.30;;;;;;5074312;28;20020;-67
2021/04/21 08:24:09;;;;;;;11.10;5.72;;;16.40;60.40;;;;;;5074703;28;20016;-67
2021/04/21 08:26:34;;;;;;;17.60;11.75;;;16.50;62.80;;;;;;5074518;28;20027;-67
2021/04/21 08:29:00;;;;;;;14.95;9.30;;;16.50;60.20;;;;;;5074597;28;20021;-67
2021/04/21 08:31:29;;;;;;;19.05;9.07;;;16.70;58.90;;;;;;5074344;28;20017;-68
2021/04/21 08:33:55;;;;;;;17.05;10.40;;;16.80;57.70;;;;;;5073124;28;20031;-67
2021/04/21 08:36:21;;;;;;;17.88;12.35;;;16.90;59.00;;;;;;5073734;28;20020;-67
2021/04/21 08:38:47;;;;;;;20.35;13.68;;;16.90;52.80;;;;;;5074496;28;20032;-67
2021/04/21 08:41:17;;;;;;;18.95;13.13;;;16.80;53.40;;;;;;5074868;28;20046;-67
2021/04/21 08:43:47;;;;;;;17.73;11.73;;;16.80;52.20;;;;;;5074111;28;20055;-67
2021/04/21 08:46:14;;;;;;;;;;;16.80;53.20;;;;;;5074661;28;20044;-67
2021/04/21 08:48:42;;;;;;;22.83;15.02;;;16.70;60.30;;;;;;5072858;28;20037;-67
2021/04/21 08:51:13;;;;;;;23.88;14.90;;;16.70;54.50;;;;;;5074333;28;20078;-67
2021/04/21 08:53:40;;;;;;;12.25;7.57;;;16.80;53.50;;;;;;5072714;28;20365;-68
2021/04/21 08:56:06;;;;;;;15.50;10.13;;;16.80;60.60;;;;;;5071041;28;20031;-67
2021/04/21 08:58:33;;;;;;;18.65;13.55;;;16.70;57.60;;;;;;5053863;28;20100;-67
2021/04/21 09:01:00;;;;;;;14.30;9.52;;;16.90;54.00;;;;;;5058944;28;20013;-67
2021/04/21 09:03:27;;;;;;;16.65;13.27;;;17.10;57.50;;;;;;5063170;28;20017;-67
2021/04/21 09:05:53;;;;;;;10.80;7.68;;;17.40;51.80;;;;;;5055872;28;20017;-67
2021/04/21 09:08:20;;;;;;;11.88;8.80;;;17.70;56.20;;;;;;5066946;28;20158;-68
2021/04/21 09:10:47;;;;;;;15.45;8.77;;;18.00;52.60;;;;;;5058295;28;20013;-69
2021/04/21 09:13:14;;;;;;;10.88;7.38;;;18.20;54.00;;;;;;5052049;28;20411;-67
2021/04/21 09:15:40;;;;;;;14.50;11.20;;;18.20;57.00;;;;;;5053523;28;20045;-68
2021/04/21 09:18:05;;;;;;;16.75;11.10;;;18.20;48.70;;;;;;5053653;28;20033;-67
2021/04/21 09:20:31;;;;;;;17.90;10.35;;;18.30;51.10;;;;;;5053613;28;20021;-67
2021/04/21 09:23:00;;;;;;;13.98;8.75;;;18.60;52.80;;;;;;5053602;28;20036;-67
2021/04/21 09:25:37;;;;;;;14.93;11.07;;;18.80;55.20;;;;;;5053401;28;20110;-67
2021/04/21 09:28:05;;;;;;;13.98;9.82;;;18.90;45.40;;;;;;5052309;28;20019;-67
2021/04/21 09:30:30;;;;;;;13.50;8.95;;;19.10;46.30;;;;;;5053329;28;20024;-67
2021/04/21 09:32:57;;;;;;;21.52;10.13;;;19.30;47.50;;;;;;5052220;28;20029;-67
2021/04/21 09:35:25;;;;;;;13.20;6.60;;;19.50;45.60;;;;;;5053258;28;20017;-66
2021/04/21 09:38:12;;;;;;;15.75;8.82;;;19.60;54.00;;;;;;5053500;28;20516;-67
2021/04/21 09:40:53;;;;;;;12.20;5.22;;;19.70;53.80;;;;;;5067614;28;20024;-67
2021/04/21 09:43:34;;;;;;;12.30;5.13;;;19.50;58.30;;;;;;5073004;28;20020;-67
2021/04/21 09:46:03;;;;;;;11.48;7.20;;;19.20;59.00;;;;;;5073259;28;20021;-67
2021/04/21 09:48:35;;;;;;;11.43;6.95;;;19.00;50.40;;;;;;5071951;28;20013;-67
2021/04/21 09:51:17;;;;;;;10.80;6.90;;;18.80;55.40;;;;;;5073199;28;20017;-67
2021/04/21 09:53:45;;;;;;;15.68;9.50;;;19.10;58.70;;;;;;5073118;28;20031;-67
2021/04/21 09:56:19;;;;;;;16.50;10.05;;;19.30;48.30;;;;;;5070407;28;20078;-67
2021/04/21 09:59:01;;;;;;;11.30;6.35;;;19.40;42.30;;;;;;5052541;28;20021;-67
2021/04/21 10:01:36;;;;;;;11.95;6.00;;;19.60;51.50;;;;;;5051352;28;20029;-66
2021/04/21 10:04:13;;;;;;;15.77;9.75;;;19.90;51.90;;;;;;5071055;28;20040;-66
2021/04/21 10:06:59;;;;;;;10.57;6.22;;;20.10;43.70;;;;;;5071331;28;20095;-66
2021/04/21 10:09:35;;;;;;;11.45;6.20;;;20.20;53.30;;;;;;5127408;27;20368;-66
2021/04/21 10:12:20;;;;;;;14.60;8.60;;;20.30;49.90;;;;;;5108550;28;20125;-67
2021/04/21 10:15:06;;;;;;;10.88;8.57;;;20.40;53.30;;;;;;5094962;28;20012;-67
2021/04/21 10:17:35;;;;;;;13.43;7.55;;;20.50;50.30;;;;;;5108244;28;20475;-67
2021/04/21 10:20:02;;;;;;;9.60;4.70;;;20.70;51.80;;;;;;5108230;28;20024;-66
2021/04/21 10:22:28;;;;;;;12.73;5.75;;;20.60;55.60;;;;;;5107468;28;20050;-66
2021/04/21 10:24:54;;;;;;;20.17;12.60;;;20.60;56.10;;;;;;5103060;28;20040;-67
2021/04/21 10:27:20;;;;;;;11.30;6.57;;;20.60;49.60;;;;;;5091455;28;20023;-66
2021/04/21 10:29:46;;;;;;;16.38;9.90;;;20.80;57.50;;;;;;5089246;28;20351;-67
2021/04/21 10:32:16;;;;;;;12.10;6.97;;;20.90;48.10;;;;;;5089161;28;20024;-67
2021/04/21 10:34:45;;;;;;;15.43;9.20;;;21.10;55.30;;;;;;5088918;28;20013;-67
2021/04/21 10:37:12;;;;;;;14.35;9.18;;;21.20;47.80;;;;;;5087599;28;20052;-67
2021/04/21 10:39:38;;;;;;;11.43;6.30;;;21.20;50.40;;;;;;5089305;28;20020;-67
2021/04/21 10:42:09;;;;;;;18.00;12.68;;;21.10;53.40;;;;;;5087813;28;20020;-67
2021/04/21 10:44:36;;;;;;;7.68;4.50;;;21.20;40.10;;;;;;5088803;28;20020;-67
2021/04/21 10:47:27;;;;;;;10.55;5.60;;;21.40;54.20;;;;;;5089149;28;20210;-67
2021/04/21 10:49:58;;;;;;;24.50;14.05;;;21.70;51.40;;;;;;5077625;28;20427;-67
2021/04/21 10:52:29;;;;;;;20.92;12.10;;;21.90;45.00;;;;;;5087389;28;20023;-67
2021/04/21 10:54:59;;;;;;;10.93;7.15;;;22.10;48.40;;;;;;5088868;28;20099;-66
2021/04/21 10:57:36;;;;;;;13.43;7.78;;;22.30;51.40;;;;;;5088459;28;20020;-68
2021/04/21 11:00:18;;;;;;;11.95;9.20;;;22.50;51.00;;;;;;5087554;28;20106;-67
2021/04/21 11:03:01;;;;;;;20.75;13.52;;;22.30;50.40;;;;;;5088157;28;20055;-67
2021/04/21 11:05:38;;;;;;;10.45;6.38;;;21.80;51.00;;;;;;5088322;28;20051;-66
2021/04/21 11:08:20;;;;;;;20.70;14.85;;;21.10;58.00;;;;;;5088506;28;20040;-67
2021/04/21 11:11:04;;;;;;;21.77;11.52;;;20.80;57.00;;;;;;5093291;28;20012;-67
2021/04/21 11:13:39;;;;;;;15.55;10.00;;;20.70;57.30;;;;;;5107215;28;20149;-68
2021/04/21 11:16:26;;;;;;;12.35;8.10;;;20.80;55.60;;;;;;5108732;28;20108;-68
2021/04/21 11:18:51;;;;;;;9.90;5.95;;;21.10;57.70;;;;;;5106589;28;20026;-67
2021/04/21 11:21:21;;;;;;;6.60;3.20;;;21.40;58.50;;;;;;5094794;28;20023;-67
2021/04/21 11:24:09;;;;;;;13.43;7.97;;;21.60;58.90;;;;;;5094485;28;20436;-67
2021/04/21 11:26:39;;;;;;;14.18;8.38;;;21.40;58.00;;;;;;5094649;28;20118;-67
2021/04/21 11:29:27;;;;;;;9.27;5.07;;;21.00;56.60;;;;;;5094837;28;20020;-67
2021/04/21 11:31:52;;;;;;;7.55;4.60;;;20.70;57.70;;;;;;5080102;28;20047;-67
2021/04/21 11:34:24;;;;;;;13.75;7.45;;;20.50;61.60;;;;;;5074449;28;20393;-67
2021/04/21 11:37:12;;;;;;;7.55;3.90;;;20.30;60.90;;;;;;5076783;28;20463;-68
2021/04/21 11:39:44;;;;;;;18.63;13.50;;;20.30;61.20;;;;;;5092437;28;20008;-68
2021/04/21 11:42:28;;;;;;;12.02;8.13;;;20.50;54.30;;;;;;5089993;28;20047;-67
2021/04/21 11:45:22;;;;;;;14.02;8.27;;;21.00;51.30;;;;;;5079930;28;20452;-67
2021/04/21 11:48:00;;;;;;;19.23;13.02;;;21.40;58.60;;;;;;5090180;28;20028;-67
2021/04/21 11:50:31;;;;;;;14.23;8.45;;;21.30;50.40;;;;;;5092234;28;20123;-67
2021/04/21 11:53:15;;;;;;;12.00;8.70;;;20.90;53.30;;;;;;5092862;28;20039;-68
2021/04/21 11:55:48;;;;;;;7.85;4.60;;;20.50;60.30;;;;;;5094178;28;20024;-68
2021/04/21 11:58:18;;;;;;;17.65;11.88;;;20.10;62.10;;;;;;5074592;28;20016;-67
2021/04/21 12:00:47;;;;;;;16.77;10.80;;;20.10;58.70;;;;;;5073843;28;20031;-67
2021/04/21 12:03:33;;;;;;;19.50;10.60;;;20.10;58.00;;;;;;5074170;28;20035;-66
2021/04/21 12:05:59;;;;;;;24.92;16.42;;;19.90;51.30;;;;;;5074381;28;20119;-66
2021/04/21 12:08:30;;;;;;;12.90;6.70;;;19.50;55.90;;;;;;5073313;28;20048;-67
2021/04/21 12:10:58;;;;;;;14.23;8.48;;;19.20;64.30;;;;;;5072618;28;20013;-67
2021/04/21 12:13:27;;;;;;;17.23;9.68;;;18.80;62.10;;;;;;5072264;28;20012;-68
2021/04/21 12:16:13;;;;;;;15.43;8.65;;;18.70;64.70;;;;;;5073484;28;20016;-67
2021/04/21 12:18:45;;;;;;;16.20;8.98;;;18.50;66.90;;;;;;5077076;28;20519;-67
2021/04/21 12:21:16;;;;;;;20.02;12.95;;;18.30;65.80;;;;;;5073376;28;20016;-68
2021/04/21 12:23:48;;;;;;;15.05;8.93;;;18.10;65.20;;;;;;5071863;28;20020;-67
2021/04/21 12:26:25;;;;;;;24.38;15.80;;;18.30;66.00;;;;;;5090718;28;20028;-67
2021/04/21 12:29:01;;;;;;;15.52;9.75;;;18.60;58.30;;;;;;5092338;28;20464;-67
2021/04/21 12:31:28;;;;;;;20.38;12.98;;;18.90;61.10;;;;;;5090883;28;20467;-66
2021/04/21 12:33:56;;;;;;;13.85;7.93;;;19.30;57.80;;;;;;5092234;28;20050;-66
2021/04/21 12:36:24;;;;;;;11.02;6.65;;;19.60;61.20;;;;;;5093521;28;20028;-67
2021/04/21 12:39:19;;;;;;;13.85;8.25;;;20.00;60.50;;;;;;5093781;28;20161;-68
2021/04/21 12:42:01;;;;;;;12.82;5.95;;;20.20;58.00;;;;;;5075545;28;20028;-68
2021/04/21 12:44:33;;;;;;;10.20;6.15;;;20.30;60.00;;;;;;5092810;28;20376;-67
2021/04/21 12:47:04;;;;;;;7.78;4.47;;;20.40;59.70;;;;;;5092036;28;20019;-68
2021/04/21 12:49:41;;;;;;;15.25;5.30;;;20.40;59.70;;;;;;5092763;28;20111;-67
2021/04/21 12:52:10;;;;;;;11.18;5.50;;;20.50;60.30;;;;;;5091759;28;20068;-68
2021/04/21 12:54:41;;;;;;;9.88;3.67;;;20.50;58.20;;;;;;5075602;28;20363;-67
2021/04/21 12:57:09;;;;;;;11.77;6.95;;;20.50;60.90;;;;;;5082953;28;20045;-67
2021/04/21 12:59:41;;;;;;;14.30;6.55;;;20.70;54.50;;;;;;5088775;28;20016;-67
2021/04/21 13:02:07;;;;;;;10.57;5.20;;;20.90;55.10;;;;;;5092842;28;20061;-67
2021/04/21 13:04:46;;;;;;;12.52;4.18;;;21.10;55.80;;;;;;5092813;28;20095;-67
2021/04/21 13:07:21;;;;;;;8.43;3.75;;;21.00;57.20;;;;;;5091282;28;20086;-68
2021/04/21 13:09:47;;;;;;;9.70;5.00;;;20.70;56.80;;;;;;5092811;28;20066;-68
2021/04/21 13:12:22;;;;;;;10.48;3.78;;;20.70;55.20;;;;;;5091566;28;20040;-68